logo tempoitalia

Diretta Meteo Manhattan, Stati Uniti (USA)lunedì 31 agosto ore 00:52

Mappa
Sereno 29 °C Sereno 24 Ore: T.min 26 T.max 39
Ponente Sud/Sud-Ovest Km/h 16.7 Punto di rugiada: 16 °C Umidità: 45% Visibilità: 10 Km
Il sole sorge alle: 06:54 Il sole tramonta alle: 19:59
31 Agosto 2026 00:52 tempo osservato: Sereno Sereno 29 45 1011 vento: Nord S/SO 16.7
30 Agosto 2026 23:52 tempo osservato: Sereno Sereno 29 48 1010 vento: Nord S/SO 11.1
30 Agosto 2026 22:52 tempo osservato: Sereno Sereno 32 40 1009 vento: Nord S/SO 14.8
30 Agosto 2026 21:52 tempo osservato: Sereno Sereno 32 43 1009 vento: Nord S 18.5
30 Agosto 2026 20:52 tempo osservato: Sereno Sereno 32 43 1008 vento: Nord S 16.7
30 Agosto 2026 19:52 tempo osservato: Sereno Sereno 33 43 1008 vento: Nord S 13
30 Agosto 2026 18:52 tempo osservato: Sereno Sereno 36 36 1008 vento: Nord S 16.7
30 Agosto 2026 17:52 tempo osservato: Sereno Sereno 38 33 1008 vento: Nord S 22.2
30 Agosto 2026 16:52 tempo osservato: Sereno Sereno 39 31 1008 vento: Nord S 20.3
30 Agosto 2026 15:52 tempo osservato: Sereno Sereno 39 31 1008 vento: Nord S/SO 29.6
30 Agosto 2026 14:52 tempo osservato: Sereno Sereno 38 33 1009 vento: Nord S/SO 25.9
30 Agosto 2026 13:52 tempo osservato: Sereno Sereno 38 33 1009 vento: Nord S/SO 22.2
30 Agosto 2026 12:52 tempo osservato: Sereno Sereno 37 35 1010 vento: Nord S/SO 25.9
30 Agosto 2026 11:52 tempo osservato: Sereno Sereno 34 41 1010 vento: Nord S/SO 33.3
30 Agosto 2026 10:52 tempo osservato: Sereno Sereno 32 46 1010 vento: Nord S/SO 29.6
30 Agosto 2026 09:52 tempo osservato: Sereno Sereno 31 45 1010 vento: Nord S/SO 29.6
30 Agosto 2026 08:52 tempo osservato: Sereno Sereno 28 51 1010 vento: Nord S/SO 31.5
30 Agosto 2026 07:52 tempo osservato: Sereno Sereno 27 50 1011 vento: Nord S/SO 22.2
30 Agosto 2026 06:52 tempo osservato: Sereno Sereno 26 54 1011 vento: Nord S/SO 20.3
30 Agosto 2026 05:52 tempo osservato: Sereno Sereno 27 50 1011 vento: Nord S/SO 18.5
30 Agosto 2026 04:52 tempo osservato: Sereno Sereno 27 50 1011 vento: Nord S/SO 14.8
30 Agosto 2026 03:52 tempo osservato: Sereno Sereno 28 48 1011 vento: Nord S/SO 18.5
30 Agosto 2026 02:52 tempo osservato: Sereno Sereno 29 45 1011 vento: Nord S/SO 20.3
30 Agosto 2026 01:52 tempo osservato: Sereno Sereno 29 45 1011 vento: Nord S/SO 20.3